VOZ323 YMML-YSSY
Flight info
| Callsign | VOZ323 |
|---|---|
| Flight time | N/A |
| Altitude | 37000 |
| Route | ML H129 DOSEL Y59 RIVET |
| Aircraft | B738/M-SDE2E3FGHIRWXY/LB1 |
Departure
| Time | 2026-05-08 05:26 |
|---|---|
| Airport | Melbourne Airport (YMML) |
Arrival
| Time | N/A |
|---|---|
| Airport | Sydney Kingsford Smith International Airport (YSSY) |
| Time | Latitude | Longitude | Altitude | Speed | Heading |
|---|---|---|---|---|---|
| 2026-05-08 05:01 | -37.66778 | 144.85157 | 396 ft | 0 kts | 82° |
| 2026-05-08 05:18 | -37.66779 | 144.85150 | 396 ft | 4 kts | 82° |
| 2026-05-08 05:18 | -37.66783 | 144.85116 | 397 ft | 4 kts | 77° |
| 2026-05-08 05:19 | -37.66794 | 144.85092 | 393 ft | 4 kts | 23° |
| 2026-05-08 05:19 | -37.66815 | 144.85086 | 397 ft | 1 kts | 1° |
| 2026-05-08 05:19 | -37.66820 | 144.85086 | 397 ft | 0 kts | 1° |
| 2026-05-08 05:22 | -37.66812 | 144.85086 | 396 ft | 6 kts | 1° |
| 2026-05-08 05:22 | -37.66761 | 144.85088 | 397 ft | 7 kts | 1° |
| 2026-05-08 05:22 | -37.66711 | 144.85084 | 396 ft | 7 kts | 353° |
| 2026-05-08 05:23 | -37.66663 | 144.85077 | 400 ft | 7 kts | 351° |
| 2026-05-08 05:23 | -37.66615 | 144.85065 | 401 ft | 7 kts | 351° |
| 2026-05-08 05:23 | -37.66568 | 144.85060 | 400 ft | 7 kts | 354° |
| 2026-05-08 05:23 | -37.66524 | 144.85048 | 405 ft | 7 kts | 345° |
| 2026-05-08 05:24 | -37.66481 | 144.85031 | 404 ft | 6 kts | 336° |
| 2026-05-08 05:24 | -37.66442 | 144.85003 | 405 ft | 6 kts | 326° |
| 2026-05-08 05:24 | -37.66407 | 144.84969 | 408 ft | 6 kts | 322° |
| 2026-05-08 05:24 | -37.66374 | 144.84936 | 409 ft | 4 kts | 322° |
| 2026-05-08 05:25 | -37.66350 | 144.84913 | 411 ft | 6 kts | 322° |
| 2026-05-08 05:25 | -37.66307 | 144.84870 | 409 ft | 9 kts | 322° |
| 2026-05-08 05:25 | -37.66255 | 144.84819 | 409 ft | 9 kts | 321° |
| 2026-05-08 05:25 | -37.66224 | 144.84749 | 408 ft | 9 kts | 282° |
| 2026-05-08 05:26 | -37.66206 | 144.84429 | 410 ft | 79 kts | 274° |
| 2026-05-08 05:26 | -37.66146 | 144.83374 | 414 ft | 159 kts | 272° |
| 2026-05-08 05:26 | -37.66066 | 144.81853 | 1036 ft | 182 kts | 271° |
| 2026-05-08 05:26 | -37.65982 | 144.80327 | 2524 ft | 163 kts | 266° |
| 2026-05-08 05:27 | -37.65911 | 144.78795 | 3251 ft | 186 kts | 268° |
| 2026-05-08 05:27 | -37.65796 | 144.77054 | 3594 ft | 211 kts | 269° |
| 2026-05-08 05:27 | -37.65677 | 144.75135 | 4050 ft | 225 kts | 269° |
| 2026-05-08 05:27 | -37.65558 | 144.73122 | 4583 ft | 239 kts | 269° |
| 2026-05-08 05:28 | -37.65434 | 144.70959 | 5134 ft | 252 kts | 269° |
| 2026-05-08 05:28 | -37.65291 | 144.68715 | 5985 ft | 260 kts | 274° |
| 2026-05-08 05:28 | -37.64615 | 144.66547 | 6846 ft | 277 kts | 300° |
| 2026-05-08 05:28 | -37.63127 | 144.64903 | 7596 ft | 296 kts | 327° |
| 2026-05-08 05:29 | -37.61162 | 144.63969 | 8405 ft | 306 kts | 340° |
| 2026-05-08 05:29 | -37.59088 | 144.63218 | 9175 ft | 314 kts | 341° |
| 2026-05-08 05:29 | -37.56954 | 144.62510 | 10005 ft | 321 kts | 349° |
| 2026-05-08 05:29 | -37.54704 | 144.62661 | 10772 ft | 329 kts | 16° |
| 2026-05-08 05:30 | -37.52682 | 144.63992 | 11510 ft | 333 kts | 42° |
| 2026-05-08 05:30 | -37.51600 | 144.65400 | 11699 ft | 345 kts | 54° |
| 2026-05-08 05:30 | -37.50106 | 144.67884 | 11909 ft | 367 kts | 57° |
| 2026-05-08 05:30 | -37.48578 | 144.70538 | 12381 ft | 379 kts | 57° |
| 2026-05-08 05:31 | -37.47036 | 144.73258 | 13120 ft | 383 kts | 60° |
| 2026-05-08 05:31 | -37.45635 | 144.76125 | 13887 ft | 386 kts | 63° |
| 2026-05-08 05:31 | -37.44304 | 144.79080 | 14572 ft | 390 kts | 64° |
| 2026-05-08 05:31 | -37.42982 | 144.82072 | 15289 ft | 392 kts | 64° |
| 2026-05-08 05:32 | -37.41645 | 144.85084 | 15974 ft | 396 kts | 64° |
| 2026-05-08 05:32 | -37.40285 | 144.88113 | 16659 ft | 399 kts | 63° |
| 2026-05-08 05:32 | -37.38904 | 144.91154 | 17359 ft | 402 kts | 63° |
| 2026-05-08 05:32 | -37.37522 | 144.94175 | 18040 ft | 405 kts | 63° |
| 2026-05-08 05:33 | -37.36103 | 144.97261 | 18682 ft | 409 kts | 63° |
| 2026-05-08 05:33 | -37.34672 | 145.00364 | 19261 ft | 412 kts | 62° |
| 2026-05-08 05:33 | -37.33228 | 145.03488 | 19836 ft | 415 kts | 63° |
| 2026-05-08 05:33 | -37.31774 | 145.06634 | 20407 ft | 418 kts | 63° |
| 2026-05-08 05:34 | -37.30306 | 145.09805 | 20983 ft | 421 kts | 63° |
| 2026-05-08 05:34 | -37.28831 | 145.12990 | 21550 ft | 424 kts | 63° |
| 2026-05-08 05:34 | -37.27340 | 145.16205 | 22089 ft | 427 kts | 63° |
| 2026-05-08 05:34 | -37.25841 | 145.19436 | 22614 ft | 430 kts | 63° |
| 2026-05-08 05:35 | -37.24344 | 145.22660 | 23126 ft | 433 kts | 63° |
| 2026-05-08 05:35 | -37.22805 | 145.25970 | 23636 ft | 436 kts | 63° |
| 2026-05-08 05:35 | -37.21269 | 145.29270 | 24106 ft | 439 kts | 63° |
| 2026-05-08 05:35 | -37.19725 | 145.32586 | 24526 ft | 442 kts | 63° |
| 2026-05-08 05:36 | -37.18171 | 145.35920 | 24923 ft | 445 kts | 63° |
| 2026-05-08 05:36 | -37.16625 | 145.39230 | 25323 ft | 448 kts | 62° |
| 2026-05-08 05:36 | -37.14912 | 145.42582 | 25729 ft | 452 kts | 58° |
| 2026-05-08 05:36 | -37.13091 | 145.45813 | 26121 ft | 456 kts | 57° |
| 2026-05-08 05:37 | -37.11229 | 145.48987 | 26491 ft | 459 kts | 56° |
| 2026-05-08 05:37 | -37.09316 | 145.52213 | 26877 ft | 462 kts | 56° |
| 2026-05-08 05:37 | -37.07401 | 145.55456 | 27273 ft | 464 kts | 57° |
| 2026-05-08 05:37 | -37.05485 | 145.58727 | 27627 ft | 467 kts | 57° |